Terminal Aerodrome Forecast
Issued by NWS Birmingham, AL

Home | Current Version | Previous Version | Text Only | Print | Product List | Glossary On
Versions: 1 2 3 4 5 6 7 8 9 10 11 12 13 14 15 16 17 18 19 20 21 22 23
000
FTUS44 KBMX 231700
TAFBHM
TAF
KBHM 231733Z 2318/2418 VRB04KT 6SM SHRA VCTS BKN040CB
      TEMPO 2318/2319 3SM TSRA
     FM232100 26005KT P6SM VCTS BKN050CB
     FM240300 24002KT P6SM FEW050 BKN150=

USA.gov is the U.S. government's official web portal to all federal, state and local government web resources and services.